Time;durP1;ratioP1;P1;durP2;ratioP2;P2;SDS_P1;SDS_P2;PMS_P1;PMS_P2;Temp;Humidity;BMP_temperature;BMP_pressure;BME280_temperature;BME280_humidity;BME280_pressure;Samples;Min_cycle;Max_cycle;Signal;HPM_P1;HPM_P2
2022/12/29 00:00:06;;;;;;;1.48;0.85;;;9.80;99.90;;;;;;5160103;27;20070;-81
2022/12/29 00:02:32;;;;;;;0.82;0.55;;;9.90;99.90;;;;;;5141609;27;20126;-81
2022/12/29 00:04:57;;;;;;;0.20;0.17;;;9.80;99.90;;;;;;5160462;27;20074;-81
2022/12/29 00:07:23;;;;;;;0.88;0.38;;;9.90;99.90;;;;;;5140626;27;20043;-81
2022/12/29 00:09:48;;;;;;;0.38;0.38;;;9.90;99.90;;;;;;5160154;27;20504;-81
2022/12/29 00:12:14;;;;;;;1.15;1.05;;;9.80;99.90;;;;;;5160308;27;20504;-81
2022/12/29 00:17:24;;;;;;;0.52;0.43;;;9.80;99.90;;;;;;5159439;27;20089;-82
2022/12/29 00:36:23;;;;;;;0.10;0.10;;;9.90;99.90;;;;;;5160122;27;20093;-80
2022/12/29 00:44:22;;;;;;;0.20;0.20;;;9.90;99.90;;;;;;5159603;27;20062;-80
2022/12/29 00:46:48;;;;;;;1.90;0.90;;;9.90;99.90;;;;;;5159243;27;20043;-81
2022/12/29 00:49:32;;;;;;;0.20;0.20;;;9.90;99.90;;;;;;5160119;27;20047;-81
2022/12/29 00:52:04;;;;;;;0.63;0.50;;;9.90;99.90;;;;;;5159958;27;20430;-80
2022/12/29 00:54:33;;;;;;;2.22;0.38;;;10.00;99.90;;;;;;5160186;27;20107;-80
2022/12/29 00:56:59;;;;;;;0.57;0.45;;;10.00;99.90;;;;;;5160345;27;20054;-81
2022/12/29 00:59:25;;;;;;;0.50;0.50;;;10.00;99.90;;;;;;5160068;27;20045;-81
2022/12/29 01:01:52;;;;;;;0.10;0.10;;;10.00;99.90;;;;;;5159833;27;20503;-81
2022/12/29 01:04:19;;;;;;;0.00;0.00;;;10.00;99.90;;;;;;5159496;27;20065;-80
2022/12/29 01:06:45;;;;;;;0.75;0.45;;;10.10;99.90;;;;;;5160068;27;20465;-81
2022/12/29 01:11:55;;;;;;;1.40;0.38;;;10.00;99.90;;;;;;5158725;27;20047;-81
2022/12/29 01:14:21;;;;;;;0.52;0.20;;;10.10;99.90;;;;;;5158994;27;20538;-81
2022/12/29 01:16:47;;;;;;;0.00;0.00;;;10.10;99.90;;;;;;5159750;27;20039;-81
2022/12/29 01:19:14;;;;;;;0.00;0.00;;;10.10;99.90;;;;;;5159160;27;20110;-81
2022/12/29 01:21:39;;;;;;;1.35;0.80;;;10.10;99.90;;;;;;5159163;27;20049;-80
2022/12/29 01:24:05;;;;;;;0.38;0.32;;;10.10;99.90;;;;;;5159198;27;20498;-81
2022/12/29 01:26:31;;;;;;;0.13;0.13;;;10.20;99.90;;;;;;5159490;27;20087;-81
2022/12/29 01:28:56;;;;;;;0.38;0.28;;;10.20;99.90;;;;;;5159170;27;20046;-81
2022/12/29 01:31:22;;;;;;;0.15;0.10;;;10.10;99.90;;;;;;5159511;27;20537;-80
2022/12/29 01:33:48;;;;;;;0.17;0.10;;;10.10;99.90;;;;;;5147830;27;20115;-81
2022/12/29 01:36:15;;;;;;;0.20;0.20;;;10.10;99.90;;;;;;5138966;28;20122;-81
2022/12/29 01:38:41;;;;;;;0.00;0.00;;;10.10;99.90;;;;;;5153657;27;20041;-81
2022/12/29 01:41:09;;;;;;;0.00;0.00;;;10.10;99.90;;;;;;5158971;27;20118;-81
2022/12/29 01:43:43;;;;;;;0.10;0.10;;;10.10;99.90;;;;;;5158406;27;20070;-81
2022/12/29 01:46:15;;;;;;;0.20;0.17;;;10.10;99.90;;;;;;5158379;27;20390;-80
2022/12/29 01:48:42;;;;;;;0.00;0.00;;;10.00;99.90;;;;;;5159161;27;20051;-81
2022/12/29 01:51:08;;;;;;;0.77;0.65;;;10.00;99.90;;;;;;5159082;27;20042;-82
2022/12/29 01:53:36;;;;;;;0.13;0.10;;;10.00;99.90;;;;;;5159919;27;20057;-80
2022/12/29 01:56:06;;;;;;;0.70;0.68;;;10.00;99.90;;;;;;5160358;27;20051;-82
2022/12/29 01:58:37;;;;;;;0.00;0.00;;;10.00;99.90;;;;;;5159630;27;20485;-82
2022/12/29 02:01:03;;;;;;;0.10;0.10;;;10.40;99.90;;;;;;5159851;27;20039;-81
2022/12/29 02:03:32;;;;;;;0.55;0.55;;;10.00;99.90;;;;;;5159631;27;20039;-81
2022/12/29 02:06:23;;;;;;;0.30;0.17;;;10.00;99.90;;;;;;5159861;27;20560;-82
2022/12/29 02:08:53;;;;;;;0.10;0.05;;;10.00;99.90;;;;;;5160180;27;20043;-81
2022/12/29 02:11:19;;;;;;;0.55;0.45;;;10.10;99.90;;;;;;5160322;27;20047;-81
2022/12/29 02:13:45;;;;;;;0.10;0.10;;;10.20;99.90;;;;;;5156367;27;20042;-81
2022/12/29 02:16:39;;;;;;;0.70;0.63;;;10.20;99.90;;;;;;5160779;27;20041;-81
2022/12/29 02:19:43;;;;;;;0.03;0.03;;;10.20;99.90;;;;;;5108459;28;20137;-81
2022/12/29 02:22:23;;;;;;;0.20;0.20;;;10.40;99.90;;;;;;5138731;27;20043;-81
2022/12/29 02:25:12;;;;;;;0.00;0.00;;;10.30;99.90;;;;;;5142828;27;20043;-81
2022/12/29 02:28:26;;;;;;;0.08;0.08;;;10.30;99.90;;;;;;5146356;27;20066;-81
2022/12/29 02:31:15;;;;;;;0.10;0.10;;;10.40;99.90;;;;;;5069837;27;20049;-81
2022/12/29 02:33:57;;;;;;;0.00;0.00;;;10.40;99.90;;;;;;5162165;27;20042;-81
2022/12/29 02:36:47;;;;;;;0.20;0.20;;;10.40;99.90;;;;;;5161266;27;20051;-81
2022/12/29 02:39:26;;;;;;;0.00;0.00;;;10.30;99.90;;;;;;5161057;27;20051;-81
2022/12/29 02:41:54;;;;;;;0.38;0.30;;;10.10;99.90;;;;;;5160991;27;20046;-81
2022/12/29 02:44:59;;;;;;;0.00;0.00;;;10.10;99.90;;;;;;5160672;27;20137;-81
2022/12/29 02:47:34;;;;;;;0.00;0.00;;;10.10;99.90;;;;;;5155469;27;20127;-81
2022/12/29 02:50:03;;;;;;;0.20;0.13;;;10.10;99.90;;;;;;5160323;27;20398;-81
2022/12/29 02:52:38;;;;;;;0.73;0.25;;;10.00;99.90;;;;;;5160367;27;20231;-81
2022/12/29 02:55:05;;;;;;;0.00;0.00;;;10.00;99.90;;;;;;5160395;27;20056;-81
2022/12/29 02:57:34;;;;;;;1.65;0.22;;;10.00;99.90;;;;;;5159770;27;20046;-81
2022/12/29 03:00:07;;;;;;;0.35;0.30;;;10.00;99.90;;;;;;5159591;27;20060;-80
2022/12/29 03:03:11;;;;;;;0.22;0.22;;;10.00;99.90;;;;;;5160103;27;20114;-80
2022/12/29 03:06:09;;;;;;;0.17;0.17;;;10.10;99.90;;;;;;5160337;27;20398;-80
2022/12/29 03:08:39;;;;;;;0.00;0.00;;;10.00;99.90;;;;;;5159529;27;20053;-80
2022/12/29 03:12:07;;;;;;;0.00;0.00;;;10.00;99.90;;;;;;5160252;27;20049;-80
2022/12/29 03:17:09;;;;;;;0.80;0.47;;;10.00;99.90;;;;;;5159265;27;20050;-80
2022/12/29 03:19:47;;;;;;;0.00;0.00;;;10.10;99.90;;;;;;5159688;27;20049;-80
2022/12/29 03:22:28;;;;;;;0.00;0.00;;;10.80;99.90;;;;;;5159650;27;20043;-80
2022/12/29 03:25:03;;;;;;;0.00;0.00;;;10.10;99.90;;;;;;5160220;27;20050;-80
2022/12/29 03:27:38;;;;;;;0.20;0.15;;;10.10;99.90;;;;;;5159622;27;20034;-80
2022/12/29 03:30:06;;;;;;;0.35;0.32;;;10.10;99.90;;;;;;5160068;27;20042;-80
2022/12/29 03:32:35;;;;;;;0.00;0.00;;;10.10;99.90;;;;;;5159710;27;20497;-80
2022/12/29 03:35:03;;;;;;;0.47;0.38;;;10.00;99.90;;;;;;5159906;27;20042;-80
2022/12/29 03:37:35;;;;;;;0.00;0.00;;;10.00;99.90;;;;;;5160108;27;20053;-80
2022/12/29 03:40:01;;;;;;;2.42;2.13;;;9.90;99.90;;;;;;5159940;27;20043;-80
2022/12/29 03:42:31;;;;;;;0.00;0.00;;;10.00;99.90;;;;;;5160066;27;20054;-80
2022/12/29 03:44:56;;;;;;;0.00;0.00;;;10.00;99.90;;;;;;5160196;27;20101;-80
2022/12/29 03:47:23;;;;;;;0.00;0.00;;;10.10;99.90;;;;;;5160007;27;20051;-81
2022/12/29 03:49:50;;;;;;;0.00;0.00;;;9.80;99.90;;;;;;5159616;27;20494;-80
2022/12/29 03:52:16;;;;;;;0.20;0.20;;;9.70;99.90;;;;;;5159680;27;20047;-80
2022/12/29 03:54:42;;;;;;;0.22;0.22;;;9.70;99.90;;;;;;5159411;27;20111;-80
2022/12/29 03:57:08;;;;;;;0.00;0.00;;;9.80;99.90;;;;;;5158960;27;20027;-80
2022/12/29 03:59:34;;;;;;;0.00;0.00;;;9.90;99.90;;;;;;5159173;27;20087;-81
2022/12/29 04:01:59;;;;;;;0.00;0.00;;;9.90;99.90;;;;;;5159391;27;20038;-80
2022/12/29 04:04:25;;;;;;;1.98;0.65;;;9.80;99.90;;;;;;5158983;27;20485;-81
2022/12/29 04:06:50;;;;;;;0.10;0.10;;;9.70;99.90;;;;;;5159087;27;20046;-80
2022/12/29 04:09:16;;;;;;;0.00;0.00;;;9.70;99.90;;;;;;5158727;27;20073;-80
2022/12/29 04:11:42;;;;;;;1.10;0.75;;;9.70;99.90;;;;;;5159236;27;20071;-80
2022/12/29 04:14:07;;;;;;;0.32;0.22;;;9.80;99.90;;;;;;5159271;27;20098;-80
2022/12/29 04:16:35;;;;;;;0.00;0.00;;;9.80;99.90;;;;;;5158866;27;20489;-80
2022/12/29 04:19:01;;;;;;;0.00;0.00;;;9.80;99.90;;;;;;5158928;27;20043;-81
2022/12/29 04:21:27;;;;;;;1.58;0.10;;;9.80;99.90;;;;;;5158297;27;20504;-80
2022/12/29 04:23:52;;;;;;;0.38;0.38;;;9.70;99.90;;;;;;5158614;27;20035;-80
2022/12/29 04:26:18;;;;;;;0.20;0.20;;;9.70;99.90;;;;;;5140506;27;20045;-80
2022/12/29 04:28:43;;;;;;;0.00;0.00;;;9.80;99.90;;;;;;5158930;27;20103;-80
2022/12/29 04:31:09;;;;;;;0.00;0.00;;;9.80;99.90;;;;;;5159412;27;20049;-80
2022/12/29 04:33:35;;;;;;;0.00;0.00;;;9.90;99.90;;;;;;5159614;27;20055;-82
2022/12/29 04:36:00;;;;;;;0.85;0.43;;;10.10;99.90;;;;;;5158266;27;20047;-81
2022/12/29 04:38:26;;;;;;;0.00;0.00;;;9.90;99.90;;;;;;5158221;27;20484;-81
2022/12/29 04:40:52;;;;;;;0.00;0.00;;;9.90;99.90;;;;;;5158802;27;20043;-81
2022/12/29 04:43:22;;;;;;;0.20;0.20;;;9.90;99.90;;;;;;5158664;27;20493;-81
2022/12/29 04:45:48;;;;;;;0.00;0.00;;;9.80;99.90;;;;;;5158022;27;20489;-81
2022/12/29 04:48:14;;;;;;;0.00;0.00;;;9.90;99.90;;;;;;5158936;27;20385;-81
2022/12/29 04:50:40;;;;;;;0.25;0.25;;;9.90;99.90;;;;;;5158848;27;20484;-81
2022/12/29 04:53:06;;;;;;;0.00;0.00;;;9.90;99.90;;;;;;5158760;27;20063;-81
2022/12/29 04:55:32;;;;;;;0.00;0.00;;;9.90;99.90;;;;;;5158838;27;20500;-81
2022/12/29 04:57:57;;;;;;;1.40;0.38;;;9.90;99.90;;;;;;5158817;27;20039;-81
2022/12/29 05:00:23;;;;;;;0.22;0.22;;;9.80;99.90;;;;;;5159147;27;20039;-82
2022/12/29 05:02:49;;;;;;;0.00;0.00;;;9.80;99.90;;;;;;5159183;27;20049;-81
2022/12/29 05:05:14;;;;;;;0.00;0.00;;;9.70;99.90;;;;;;5158531;27;20041;-81
2022/12/29 05:07:40;;;;;;;0.10;0.10;;;9.60;99.90;;;;;;5158057;27;20039;-81
2022/12/29 05:10:07;;;;;;;0.00;0.00;;;9.50;99.90;;;;;;5158551;27;20538;-81
2022/12/29 05:12:34;;;;;;;15.52;1.55;;;9.40;99.90;;;;;;5158294;27;20043;-81
2022/12/29 05:15:02;;;;;;;1.80;0.60;;;10.00;99.90;;;;;;5158086;27;20554;-81
2022/12/29 05:17:28;;;;;;;0.00;0.00;;;9.30;99.90;;;;;;5158083;27;20035;-81
2022/12/29 05:19:54;;;;;;;0.15;0.15;;;9.20;99.90;;;;;;5157878;27;20074;-80
2022/12/29 05:22:20;;;;;;;0.00;0.00;;;9.10;99.90;;;;;;5158118;27;20066;-81
2022/12/29 05:24:45;;;;;;;0.00;0.00;;;9.20;99.90;;;;;;5158921;27;20039;-81
2022/12/29 05:27:11;;;;;;;1.60;1.13;;;9.20;99.90;;;;;;5159095;27;20038;-81
2022/12/29 05:29:36;;;;;;;0.10;0.05;;;9.20;99.90;;;;;;5159640;27;20031;-81
2022/12/29 05:32:02;;;;;;;0.20;0.20;;;9.10;99.90;;;;;;5158452;27;20433;-81
2022/12/29 05:34:27;;;;;;;0.00;0.00;;;9.00;99.90;;;;;;5158343;27;20316;-81
2022/12/29 05:36:53;;;;;;;0.03;0.03;;;9.00;99.90;;;;;;5158914;27;20489;-80
2022/12/29 05:39:19;;;;;;;2.00;1.10;;;9.00;99.90;;;;;;5158639;27;20035;-80
2022/12/29 05:41:44;;;;;;;0.22;0.22;;;8.90;99.90;;;;;;5158948;27;20050;-81
2022/12/29 05:44:10;;;;;;;0.00;0.00;;;9.00;99.90;;;;;;5158586;27;20046;-80
2022/12/29 05:46:36;;;;;;;0.40;0.40;;;8.90;99.90;;;;;;5156945;27;20059;-81
2022/12/29 05:49:02;;;;;;;0.00;0.00;;;8.90;99.90;;;;;;5158530;27;20050;-80
2022/12/29 05:51:27;;;;;;;0.13;0.10;;;8.90;99.90;;;;;;5159968;27;20085;-81
2022/12/29 05:53:53;;;;;;;0.10;0.10;;;8.90;99.90;;;;;;5159811;27;20031;-80
2022/12/29 05:56:19;;;;;;;0.00;0.00;;;8.90;99.90;;;;;;5160519;27;20066;-80
2022/12/29 05:58:44;;;;;;;0.00;0.00;;;8.90;99.90;;;;;;5163780;27;20530;-80
2022/12/29 06:01:10;;;;;;;0.00;0.00;;;8.90;99.90;;;;;;5163120;27;20088;-79
2022/12/29 06:03:35;;;;;;;0.15;0.15;;;8.80;99.90;;;;;;5163476;27;20378;-80
2022/12/29 06:06:01;;;;;;;0.40;0.40;;;8.80;99.90;;;;;;5162632;27;20053;-80
2022/12/29 06:08:26;;;;;;;1.95;0.32;;;8.90;99.90;;;;;;5163861;27;20108;-80
2022/12/29 06:10:52;;;;;;;0.15;0.10;;;9.00;99.90;;;;;;5164736;27;20121;-80
2022/12/29 06:13:18;;;;;;;0.00;0.00;;;9.00;99.90;;;;;;5164004;27;20445;-80
2022/12/29 06:15:43;;;;;;;0.00;0.00;;;9.00;99.90;;;;;;5164702;27;20035;-80
2022/12/29 06:18:09;;;;;;;0.00;0.00;;;9.00;99.90;;;;;;5161837;27;20110;-81
2022/12/29 06:20:34;;;;;;;0.00;0.00;;;8.90;99.90;;;;;;5159858;27;20050;-81
2022/12/29 06:23:00;;;;;;;0.03;0.03;;;8.90;99.90;;;;;;5161070;27;20057;-81
2022/12/29 06:25:25;;;;;;;1.48;1.38;;;8.80;99.90;;;;;;5160871;27;20404;-81
2022/12/29 06:27:51;;;;;;;0.10;0.10;;;8.90;99.90;;;;;;5160264;27;20118;-80
2022/12/29 06:30:17;;;;;;;0.00;0.00;;;8.90;99.90;;;;;;5142173;27;20453;-81
2022/12/29 06:32:43;;;;;;;0.52;0.52;;;8.90;99.90;;;;;;5140832;27;20050;-81
2022/12/29 06:35:09;;;;;;;0.13;0.13;;;9.00;99.90;;;;;;5159909;27;20405;-81
2022/12/29 06:37:34;;;;;;;0.00;0.00;;;9.00;99.90;;;;;;5160324;27;20334;-81
2022/12/29 06:40:00;;;;;;;0.45;0.45;;;9.00;99.90;;;;;;5160698;27;20636;-81
2022/12/29 06:42:25;;;;;;;0.75;0.45;;;9.00;99.90;;;;;;5160423;27;20116;-81
2022/12/29 06:44:52;;;;;;;0.00;0.00;;;8.90;99.90;;;;;;5160124;27;20050;-81
2022/12/29 06:47:18;;;;;;;1.80;1.05;;;8.90;99.90;;;;;;5160318;27;20050;-81
2022/12/29 06:49:44;;;;;;;0.85;0.82;;;8.80;99.90;;;;;;5160051;27;20054;-81
2022/12/29 06:52:09;;;;;;;0.00;0.00;;;8.90;1.00;;;;;;5160486;27;20153;-80
2022/12/29 06:54:35;;;;;;;0.57;0.55;;;8.90;1.00;;;;;;5142525;27;20039;-81
2022/12/29 06:57:00;;;;;;;0.00;0.00;;;8.90;1.00;;;;;;5160865;27;20088;-81
2022/12/29 06:59:26;;;;;;;1.95;1.20;;;8.80;67.10;;;;;;5161220;27;20035;-80
2022/12/29 07:01:52;;;;;;;0.10;0.08;;;8.90;1.00;;;;;;5142122;27;20093;-81
2022/12/29 07:04:17;;;;;;;0.10;0.10;;;8.90;1.00;;;;;;5160276;27;20050;-81
2022/12/29 07:06:43;;;;;;;0.00;0.00;;;8.80;89.10;;;;;;5160231;27;20049;-81
2022/12/29 07:09:09;;;;;;;0.57;0.45;;;8.90;66.20;;;;;;5160270;27;20402;-80
2022/12/29 07:11:35;;;;;;;0.10;0.10;;;8.90;1.00;;;;;;5160615;27;20066;-81
2022/12/29 07:14:02;;;;;;;0.00;0.00;;;8.90;42.10;;;;;;5160568;27;20042;-80
2022/12/29 07:16:29;;;;;;;1.40;0.25;;;9.10;1.00;;;;;;5160208;27;20038;-80
2022/12/29 07:18:55;;;;;;;0.20;0.20;;;9.10;99.90;;;;;;5159591;27;20095;-80
2022/12/29 07:21:21;;;;;;;0.38;0.38;;;9.30;1.00;;;;;;5159845;27;20035;-80
2022/12/29 07:23:46;;;;;;;1.35;0.73;;;9.20;99.90;;;;;;5160350;27;20031;-81
2022/12/29 07:26:14;;;;;;;0.00;0.00;;;9.10;99.90;;;;;;5160275;27;20068;-81
2022/12/29 07:28:39;;;;;;;0.00;0.00;;;9.20;98.40;;;;;;5160213;27;20031;-81
2022/12/29 07:31:06;;;;;;;2.92;1.77;;;9.20;99.90;;;;;;5159661;27;20122;-81
2022/12/29 07:33:32;;;;;;;2.72;1.75;;;9.20;10.20;;;;;;5160218;27;20035;-81
2022/12/29 07:35:58;;;;;;;0.75;0.70;;;9.40;99.90;;;;;;5160735;27;20035;-81
2022/12/29 07:38:24;;;;;;;0.30;0.30;;;9.40;99.90;;;;;;5159736;27;20477;-81
2022/12/29 07:40:50;;;;;;;0.08;0.08;;;9.40;99.90;;;;;;5159568;27;20102;-80
2022/12/29 07:43:15;;;;;;;0.00;0.00;;;9.50;99.90;;;;;;5160412;27;20043;-81
2022/12/29 07:45:41;;;;;;;0.25;0.25;;;9.50;99.90;;;;;;5160392;27;20126;-81
2022/12/29 07:48:09;;;;;;;0.10;0.10;;;9.60;99.90;;;;;;5159285;27;20055;-81
2022/12/29 07:50:36;;;;;;;2.10;1.45;;;9.70;99.90;;;;;;5160144;27;20420;-80
2022/12/29 07:53:02;;;;;;;0.00;0.00;;;9.60;99.90;;;;;;5160273;27;20089;-80
2022/12/29 07:55:29;;;;;;;1.13;0.50;;;10.20;99.90;;;;;;5160320;27;20077;-80
2022/12/29 07:57:55;;;;;;;0.00;0.00;;;9.60;1.00;;;;;;5160154;27;20042;-81
2022/12/29 08:00:21;;;;;;;0.80;0.55;;;9.90;1.00;;;;;;5159070;27;20034;-81
2022/12/29 08:02:46;;;;;;;0.10;0.10;;;9.60;99.90;;;;;;5159198;27;20097;-81
2022/12/29 08:05:12;;;;;;;0.00;0.00;;;9.60;99.90;;;;;;5159471;27;20051;-80
2022/12/29 08:07:38;;;;;;;1.08;0.98;;;9.60;1.00;;;;;;5158487;27;20409;-81
2022/12/29 08:10:04;;;;;;;0.00;0.00;;;9.60;1.00;;;;;;5159248;27;20404;-81
2022/12/29 08:12:29;;;;;;;0.45;0.45;;;9.60;99.90;;;;;;5159379;27;20046;-81
2022/12/29 08:14:56;;;;;;;0.30;0.30;;;9.60;99.90;;;;;;5158844;27;20046;-81
2022/12/29 08:17:22;;;;;;;0.13;0.13;;;9.60;99.90;;;;;;5159281;27;20053;-81
2022/12/29 08:19:47;;;;;;;0.00;0.00;;;9.60;1.00;;;;;;5158759;27;20039;-81
2022/12/29 08:22:14;;;;;;;7.88;0.90;;;9.60;99.90;;;;;;5158863;27;20039;-81
2022/12/29 08:24:39;;;;;;;0.10;0.10;;;9.60;99.90;;;;;;5158923;27;20046;-80
2022/12/29 08:27:05;;;;;;;0.75;0.55;;;9.70;99.90;;;;;;5159048;27;20117;-81
2022/12/29 08:29:30;;;;;;;0.35;0.35;;;9.70;99.90;;;;;;5158628;27;20042;-80
2022/12/29 08:31:56;;;;;;;0.08;0.08;;;9.70;99.90;;;;;;5159173;27;20031;-81
2022/12/29 08:34:21;;;;;;;0.20;0.20;;;9.70;99.90;;;;;;5159178;27;20117;-81
2022/12/29 08:36:47;;;;;;;0.00;0.00;;;9.70;99.90;;;;;;5158648;27;20039;-80
2022/12/29 08:39:13;;;;;;;0.10;0.10;;;9.70;64.00;;;;;;5158621;27;20039;-80
2022/12/29 08:41:39;;;;;;;0.10;0.10;;;9.70;1.00;;;;;;5158764;27;20097;-81
2022/12/29 08:44:05;;;;;;;3.58;1.00;;;9.80;99.90;;;;;;5158050;27;20427;-80
2022/12/29 08:46:31;;;;;;;0.17;0.17;;;9.80;99.90;;;;;;5157208;27;20164;-81
2022/12/29 08:48:57;;;;;;;0.80;0.80;;;9.70;1.00;;;;;;5158516;27;20046;-80
2022/12/29 08:51:22;;;;;;;0.35;0.32;;;9.70;99.90;;;;;;5157454;27;20535;-81
2022/12/29 08:53:48;;;;;;;0.10;0.10;;;9.80;99.90;;;;;;5158637;27;20382;-80
2022/12/29 08:56:14;;;;;;;0.52;0.52;;;9.80;1.00;;;;;;5157880;27;20046;-81
2022/12/29 08:58:40;;;;;;;0.08;0.08;;;9.90;99.90;;;;;;5158427;27;20544;-80
2022/12/29 09:01:06;;;;;;;8.48;1.45;;;9.80;99.90;;;;;;5157611;27;20072;-81
2022/12/29 09:03:31;;;;;;;0.43;0.43;;;9.90;99.90;;;;;;5152840;27;20096;-80
2022/12/29 09:05:57;;;;;;;0.98;0.30;;;9.80;1.00;;;;;;5157634;27;20039;-80
2022/12/29 09:08:23;;;;;;;1.10;0.65;;;9.80;99.90;;;;;;5157895;27;20039;-80
2022/12/29 09:10:49;;;;;;;10.45;1.67;;;9.60;99.90;;;;;;5158141;27;20478;-80
2022/12/29 09:13:18;;;;;;;0.03;0.03;;;9.50;1.00;;;;;;5157575;27;20077;-80
2022/12/29 09:15:44;;;;;;;0.00;0.00;;;9.50;62.60;;;;;;5157543;27;20477;-80
2022/12/29 09:18:10;;;;;;;0.25;0.22;;;9.50;1.00;;;;;;5157402;27;20098;-80
2022/12/29 09:20:36;;;;;;;0.10;0.10;;;9.50;99.90;;;;;;5158465;27;20031;-80
2022/12/29 09:23:03;;;;;;;12.45;0.65;;;9.50;99.90;;;;;;5157805;27;20039;-80
2022/12/29 09:25:29;;;;;;;0.52;0.47;;;9.40;99.90;;;;;;5157682;27;20124;-80
2022/12/29 09:27:54;;;;;;;0.00;0.00;;;9.40;1.00;;;;;;5158242;27;20058;-81
2022/12/29 09:30:22;;;;;;;0.00;0.00;;;9.20;99.90;;;;;;5152926;27;20078;-81
2022/12/29 09:32:48;;;;;;;0.10;0.10;;;9.10;99.90;;;;;;5154305;27;20050;-81
2022/12/29 09:35:15;;;;;;;1.73;0.38;;;9.00;99.90;;;;;;5157712;27;20043;-80
2022/12/29 09:37:40;;;;;;;0.20;0.20;;;8.90;99.90;;;;;;5157892;27;20077;-80
2022/12/29 09:40:07;;;;;;;0.45;0.35;;;8.90;99.90;;;;;;5157517;27;20541;-81
2022/12/29 09:42:45;;;;;;;0.30;0.30;;;8.80;99.90;;;;;;5160678;27;20053;-81
2022/12/29 09:45:14;;;;;;;0.03;0.03;;;8.90;99.90;;;;;;5156966;27;20054;-81
2022/12/29 09:47:45;;;;;;;26.10;1.48;;;8.90;99.90;;;;;;5157162;27;20365;-81
2022/12/29 09:50:35;;;;;;;0.90;0.68;;;8.90;99.90;;;;;;5158032;27;20049;-81
2022/12/29 09:53:20;;;;;;;2.28;0.73;;;9.00;99.90;;;;;;5156992;27;20113;-80
2022/12/29 09:55:49;;;;;;;0.50;0.17;;;9.10;99.90;;;;;;5155077;27;20039;-81
2022/12/29 09:58:37;;;;;;;0.00;0.00;;;9.10;99.90;;;;;;5157952;27;20125;-81
2022/12/29 10:01:06;;;;;;;0.30;0.30;;;9.20;99.90;;;;;;5156265;27;20047;-81
2022/12/29 10:03:50;;;;;;;1.48;0.80;;;9.20;99.90;;;;;;5157716;27;20055;-81
2022/12/29 10:06:44;;;;;;;0.00;0.00;;;9.10;99.90;;;;;;5156667;27;20409;-81
2022/12/29 10:09:19;;;;;;;0.28;0.28;;;9.00;99.90;;;;;;5157749;27;20047;-81
2022/12/29 10:12:12;;;;;;;0.03;0.03;;;9.00;99.90;;;;;;5157923;27;20132;-81
2022/12/29 10:15:04;;;;;;;0.10;0.10;;;8.90;99.90;;;;;;5156869;27;20077;-81
2022/12/29 10:17:45;;;;;;;0.00;0.00;;;8.90;99.90;;;;;;5157122;27;20146;-81
2022/12/29 10:20:17;;;;;;;0.00;0.00;;;8.90;99.90;;;;;;5157402;27;20523;-80
2022/12/29 10:23:09;;;;;;;1.65;1.25;;;8.90;99.90;;;;;;5157172;27;20058;-81
2022/12/29 10:25:39;;;;;;;0.08;0.08;;;8.90;99.90;;;;;;5156234;27;20113;-81
2022/12/29 10:28:20;;;;;;;2.42;1.45;;;8.90;99.90;;;;;;5156524;27;20257;-80
2022/12/29 10:30:48;;;;;;;0.00;0.00;;;8.90;99.90;;;;;;5154056;27;20058;-81
2022/12/29 10:33:19;;;;;;;0.00;0.00;;;8.90;99.90;;;;;;5138535;27;20091;-81
2022/12/29 10:35:46;;;;;;;0.00;0.00;;;9.00;99.90;;;;;;5153146;27;20038;-81
2022/12/29 10:38:46;;;;;;;0.00;0.00;;;8.80;99.90;;;;;;5157534;27;20035;-81
2022/12/29 10:41:19;;;;;;;0.10;0.10;;;8.70;99.90;;;;;;5150253;27;20089;-81
2022/12/29 10:43:51;;;;;;;0.00;0.00;;;8.60;99.90;;;;;;5156694;27;20081;-81
2022/12/29 10:46:37;;;;;;;1.55;0.32;;;8.60;99.90;;;;;;5161455;27;20461;-80
2022/12/29 10:49:04;;;;;;;5.18;0.77;;;8.60;99.90;;;;;;5159904;27;20055;-80
2022/12/29 10:51:39;;;;;;;0.10;0.10;;;8.70;99.90;;;;;;5160361;27;20046;-80
2022/12/29 10:54:13;;;;;;;0.00;0.00;;;8.80;99.90;;;;;;5160407;27;20034;-80
2022/12/29 10:56:44;;;;;;;1.45;0.65;;;8.80;99.90;;;;;;5160648;27;20049;-80
2022/12/29 10:59:16;;;;;;;0.10;0.10;;;8.70;99.90;;;;;;5160200;27;20034;-80
2022/12/29 11:02:09;;;;;;;0.32;0.32;;;8.70;99.90;;;;;;5160947;27;20044;-80
2022/12/29 11:04:44;;;;;;;0.00;0.00;;;8.70;99.90;;;;;;5157454;27;20102;-80
2022/12/29 11:07:11;;;;;;;2.75;0.20;;;8.70;99.90;;;;;;5157940;27;20127;-79
2022/12/29 11:09:39;;;;;;;1.67;1.00;;;8.60;99.90;;;;;;5158189;27;20031;-79
2022/12/29 11:12:29;;;;;;;0.10;0.10;;;8.70;99.90;;;;;;5157962;27;20393;-80
2022/12/29 11:15:01;;;;;;;1.00;0.70;;;8.80;99.90;;;;;;5157522;27;20078;-80
2022/12/29 11:17:27;;;;;;;0.00;0.00;;;8.70;99.90;;;;;;5160663;27;20043;-80
2022/12/29 11:19:53;;;;;;;0.00;0.00;;;8.60;99.90;;;;;;5160434;27;20058;-80
2022/12/29 11:22:26;;;;;;;0.30;0.30;;;8.50;99.90;;;;;;5160226;27;20062;-79
2022/12/29 11:24:53;;;;;;;0.00;0.00;;;8.40;99.90;;;;;;5161099;27;20050;-79
2022/12/29 11:27:22;;;;;;;0.20;0.10;;;8.40;99.90;;;;;;5160850;27;20034;-79
2022/12/29 11:29:50;;;;;;;0.55;0.55;;;8.40;99.90;;;;;;5161120;27;20054;-79
2022/12/29 11:32:27;;;;;;;0.45;0.45;;;8.40;99.90;;;;;;5160508;27;20117;-79
2022/12/29 11:34:53;;;;;;;0.05;0.05;;;8.30;99.90;;;;;;5160829;27;20528;-79
2022/12/29 11:37:42;;;;;;;0.00;0.00;;;8.50;99.90;;;;;;5160926;27;20071;-79
2022/12/29 11:40:18;;;;;;;0.00;0.00;;;8.60;99.90;;;;;;5160826;27;20043;-79
2022/12/29 11:43:03;;;;;;;;;;;8.60;99.90;;;;;;5161629;27;20486;-79
2022/12/29 11:45:34;;;;;;;3.10;1.13;;;8.60;99.90;;;;;;5161203;27;19971;-80
2022/12/29 11:48:07;;;;;;;0.00;0.00;;;8.50;99.90;;;;;;5161074;27;20068;-80
2022/12/29 11:50:40;;;;;;;1.48;1.38;;;8.50;99.90;;;;;;5161542;27;20102;-80
2022/12/29 11:53:07;;;;;;;0.17;0.17;;;8.60;99.90;;;;;;5160852;27;20042;-80
2022/12/29 11:55:33;;;;;;;1.38;1.00;;;8.90;99.90;;;;;;5160255;27;20042;-80
2022/12/29 11:58:02;;;;;;;0.15;0.15;;;9.10;99.90;;;;;;5161309;27;20035;-80
2022/12/29 12:00:30;;;;;;;12.25;0.52;;;9.40;99.90;;;;;;5162099;27;20094;-80
2022/12/29 12:03:14;;;;;;;0.47;0.45;;;9.50;99.90;;;;;;5161780;27;20497;-80
2022/12/29 12:05:54;;;;;;;0.43;0.43;;;9.50;99.90;;;;;;5162095;27;20087;-80
2022/12/29 12:08:51;;;;;;;2.33;1.35;;;9.70;99.90;;;;;;5161468;27;20043;-80
2022/12/29 12:11:35;;;;;;;0.40;0.10;;;9.60;99.90;;;;;;5161644;27;20054;-80
2022/12/29 12:14:11;;;;;;;2.40;0.75;;;9.60;99.90;;;;;;5161316;27;20046;-80
2022/12/29 12:16:43;;;;;;;27.20;0.88;;;9.50;99.90;;;;;;5161357;27;20035;-80
2022/12/29 12:19:24;;;;;;;6.28;1.27;;;9.40;99.90;;;;;;5161550;27;20043;-80
2022/12/29 12:21:55;;;;;;;7.82;2.17;;;9.40;99.90;;;;;;5142705;27;20069;-80
2022/12/29 12:24:44;;;;;;;15.18;1.15;;;9.60;99.90;;;;;;5161539;27;20113;-80
2022/12/29 12:27:19;;;;;;;0.13;0.10;;;9.90;99.90;;;;;;5161219;27;20081;-80
2022/12/29 12:29:52;;;;;;;0.40;0.40;;;10.00;99.90;;;;;;5161553;27;20501;-80
2022/12/29 12:32:27;;;;;;;0.00;0.00;;;10.00;2.70;;;;;;5161407;27;20099;-80
2022/12/29 12:34:52;;;;;;;0.03;0.03;;;10.00;99.90;;;;;;5161944;27;20159;-80
2022/12/29 12:37:33;;;;;;;0.80;0.50;;;10.00;93.20;;;;;;5161784;27;20047;-80
2022/12/29 12:40:08;;;;;;;0.20;0.20;;;10.20;12.50;;;;;;5161695;27;20126;-79
2022/12/29 12:42:49;;;;;;;0.10;0.10;;;10.30;1.00;;;;;;5161159;27;20047;-80
2022/12/29 12:45:27;;;;;;;2.00;1.15;;;10.30;99.90;;;;;;5160981;27;20582;-80
2022/12/29 12:48:20;;;;;;;0.95;0.63;;;10.30;1.00;;;;;;5161309;27;20091;-80
2022/12/29 12:51:29;;;;;;;0.30;0.30;;;10.40;99.90;;;;;;5161345;27;20046;-80
2022/12/29 12:54:11;;;;;;;0.52;0.52;;;10.50;99.90;;;;;;5161672;27;20457;-80
2022/12/29 12:56:54;;;;;;;0.70;0.70;;;10.70;1.00;;;;;;5161594;27;20042;-80
2022/12/29 12:59:45;;;;;;;0.50;0.43;;;10.70;73.90;;;;;;5161374;27;20464;-80
2022/12/29 13:02:27;;;;;;;0.73;0.45;;;10.50;99.90;;;;;;5160895;27;20049;-80
2022/12/29 13:04:59;;;;;;;0.03;0.03;;;10.40;99.90;;;;;;5161513;27;20042;-80
2022/12/29 13:07:44;;;;;;;0.10;0.10;;;10.30;99.90;;;;;;5161049;27;20047;-80
2022/12/29 13:10:15;;;;;;;0.57;0.52;;;10.30;1.00;;;;;;5160795;27;20165;-80
2022/12/29 13:12:50;;;;;;;0.00;0.00;;;10.20;99.90;;;;;;5161111;27;20107;-80
2022/12/29 13:15:46;;;;;;;2.40;1.13;;;10.20;99.90;;;;;;5160865;27;20058;-80
2022/12/29 13:18:32;;;;;;;0.05;0.05;;;10.10;1.00;;;;;;5160387;27;20549;-80
2022/12/29 13:21:27;;;;;;;0.15;0.15;;;9.90;99.90;;;;;;5159960;27;20099;-80
2022/12/29 13:24:08;;;;;;;0.43;0.35;;;9.90;99.90;;;;;;5160650;27;20087;-80
2022/12/29 13:27:04;;;;;;;1.95;0.93;;;9.90;1.00;;;;;;5160344;27;20082;-80
2022/12/29 13:29:42;;;;;;;0.55;0.50;;;9.90;1.00;;;;;;5160313;27;20050;-80
2022/12/29 13:32:42;;;;;;;0.00;0.00;;;9.70;43.80;;;;;;5160753;27;20161;-80
2022/12/29 13:35:41;;;;;;;0.35;0.28;;;9.60;1.00;;;;;;5160540;27;20051;-80
2022/12/29 13:38:12;;;;;;;4.07;1.45;;;9.50;99.90;;;;;;5160738;27;20130;-80
2022/12/29 13:40:43;;;;;;;0.05;0.05;;;9.50;99.90;;;;;;5160594;27;20039;-80
2022/12/29 13:43:09;;;;;;;4.00;0.43;;;9.40;99.90;;;;;;5159923;27;20035;-80
2022/12/29 13:45:36;;;;;;;1.88;1.25;;;9.40;99.90;;;;;;5154349;27;20117;-80